GP di Lombardia

MX 2019. Cairoli e Olsen si aggiudicano le qualifiche a Mantova

- Cairoli conclude davanti a Gajser e Paulin la manche di qualifica del GP di Lombardia 2019. In MX2 Olsen taglia il traguardo davanti a Sterry ed Evans
MX 2019. Cairoli e Olsen si aggiudicano le qualifiche a Mantova

Dopo il successo trentino di Tim Gajser, Tony Cairoli ci teneva a fare capire le sua volontà di ritornare sul gradino più alto del podio e lo ha chiarito subito con la superlativa vittoria della manche di qualificazione. Un'affermazione di spessore, visto che l’ufficiale KTM ha preso il largo fin dalle prime battute di gara ed ha controllato senza sbavature il suo vantaggio sullo sloveno della HRC che si è dovuto accontentare del posto d’onore davanti a Gautier Paulin e Arminas Jasikonis.

 

Bene anche Ivo Monticelli, 6° davanti a Pauls Jonass e Clement Desalle, mentre Alex Lupino è scivolato nelle prime fasi di gara recuperando sino a 20°.

Più combattuta la MX2, partita all’insegna di Jorge Prado che si era assicurato il miglior tempo nelle cronometrate. Le qualifiche invece sono iniziate con al comando Adam Sterry che è stato poi scavalcato dal compagno di scuderia Henry Jacobi il quale è finito a terra lasciando di nuovo il comando all’inglese. Sterry ha tenuto duro fino a due giri dalla bandiera a scacchi, quando Thomas Olsen ha completato la sua rimonta dalla quarta piazza portandosi in testa e tagliando il traguardo davanti a Sterry, Mitchell Evans e Prado partito 8°. Solo 10° Michele Cervellin, che non ha trovato il passo per recuperare la posizione acquisita alla partenza.

La manche d’apertura della EMX125 ha invece dato di nuovo ragione al fantastico Mattia Guadagnini che ha reso omaggio alla sua Husqvarna Maddii Racing personalizzata con i colori giallo/blu con cui Chicco Chiodi nel ’99 si aggiudicò il titolo 125 tagliando il traguardo per primo dopo essere rimontato a testa bassa dalla terza posizione; alle sue spalle il francese Tom Guyon e lo spagnolo Oriol Oliver, mentre nei top ten si è piazzato sul filo di lana Mirko Valsecchi.

CLASSIFICHE

 

MXGP - Qualifying Race - Classification

Pos Nr Rider Nat. Fed. Bike Time laps Diff. First Diff. Prev. Bestlaptime in lap Speed
1 222 Cairoli, Antonio ITA FMI KTM 25:11.694 12 0:00.000 0:00.000 1:53.905 2 52.4
2 243 Gajser, Tim SLO AMZS Honda 25:26.778 12 0:15.084 0:15.084 1:55.745 5 51.6
3 21 Paulin, Gautier FRA MCM Yamaha 25:32.573 12 0:20.879 0:05.795 1:56.191 2 51.4
4 27 Jasikonis, Arminas LTU LMSF Husqvarna 25:39.306 12 0:27.612 0:06.733 1:56.553 2 51.2
5 7 Leok, Tanel EST EMF Husqvarna 25:42.790 12 0:31.096 0:03.484 1:57.140 2 51
6 128 Monticelli, Ivo ITA FMI KTM 25:45.113 12 0:33.419 0:02.323 1:56.322 2 51.3
7 41 Jonass, Pauls LAT LAMSF Husqvarna 25:46.884 12 0:35.190 0:01.771 1:56.953 1 51
8 25 Desalle, Clement BEL FMB Kawasaki 25:48.567 12 0:36.873 0:01.683 1:56.230 2 51.4
9 89 Van Horebeek, Jeremy BEL FMB Honda 25:50.463 12 0:38.769 0:01.896 1:57.837 3 50.7
10 99 Anstie, Max GBR ACU KTM 25:52.386 12 0:40.692 0:01.923 1:57.873 2 50.6
11 33 Lieber, Julien BEL FMB Kawasaki 25:55.970 12 0:44.276 0:03.584 1:58.209 5 50.5
12 24 Simpson, Shaun GBR ACU KTM 26:01.449 12 0:49.755 0:05.479 1:57.908 6 50.6
13 91 Seewer, Jeremy SUI FMS Yamaha 26:02.310 12 0:50.616 0:00.861 1:57.885 3 50.6
14 22 Strijbos, Kevin BEL FMB Yamaha 26:10.837 12 0:59.143 0:08.527 1:58.608 2 50.3
15 189 Bogers, Brian NED KNMV Honda 26:15.858 12 1:04.164 0:05.021 1:58.112 2 50.5
16 259 Coldenhoff, Glenn NED KNMV KTM 26:18.004 12 1:06.310 0:02.146 1:58.355 2 50.4
17 100 Searle, Tommy GBR ACU Kawasaki 26:18.421 12 1:06.727 0:00.417 1:58.762 6 50.3
18 4 Tonus, Arnaud SUI FMS Yamaha 26:18.967 12 1:07.273 0:00.546 1:58.685 11 50.3
19 297 Gole, Anton SWE SVEMO Yamaha 26:21.491 12 1:09.797 0:02.524 1:59.499 5 50
20 77 Lupino, Alessandro ITA FMI Kawasaki 26:22.706 12 1:11.012 0:01.215 1:59.290 5 50

 

 

MX2 - Qualifying Race - Classification

Pos Nr Rider Nat. Fed. Bike Time laps Diff. First Diff. Prev. Bestlaptime in lap Speed
1 19 Olsen, Thomas Kjer DEN DMU Husqvarna 25:37.634 12 0:00.000 0:00.000 1:56.643 1 51.2
2 811 Sterry, Adam GBR ACU Kawasaki 25:41.596 12 0:03.962 0:03.962 1:56.956 1 51
3 43 Evans, Mitchell AUS MA Honda 25:45.083 12 0:07.449 0:03.487 1:57.203 3 50.9
4 61 Prado, Jorge ESP RFME KTM 25:51.843 12 0:14.209 0:06.760 1:56.308 3 51.3
5 172 Boisrame, Mathys FRA FFM Honda 25:52.791 12 0:15.157 0:00.948 1:57.161 4 51
6 919 Watson, Ben GBR ACU Yamaha 25:53.854 12 0:16.220 0:01.063 1:57.417 4 50.8
7 46 Pootjes, Davy NED KNMV Husqvarna 26:00.016 12 0:22.382 0:06.162 1:56.752 4 51.1
8 10 Vlaanderen, Calvin NED KNMV Honda 26:01.903 12 0:24.269 0:01.887 1:57.678 2 50.7
9 29 Jacobi, Henry GER DMSB Kawasaki 26:03.337 12 0:25.703 0:01.434 1:56.781 1 51.1
10 747 Cervellin, Michele ITA FMI Yamaha 26:08.867 12 0:31.233 0:05.530 1:58.042 2 50.6
11 14 Beaton, Jed AUS MA Husqvarna 26:09.144 12 0:31.510 0:00.277 1:59.165 5 50.1
12 98 Vaessen, Bas NED KNMV KTM 26:13.753 12 0:36.119 0:04.609 1:58.851 6 50.2
13 66 Larranaga Olano, Iker ESP RFME KTM 26:17.285 12 0:39.651 0:03.532 1:58.697 5 50.3
14 193 Geerts, Jago BEL FMB Yamaha 26:20.244 12 0:42.610 0:02.959 1:59.161 9 50.1
15 101 Pichon, Zachary FRA FFM Honda 26:29.292 12 0:51.658 0:09.048 1:59.461 2 50
16 44 Lesiardo, Morgan ITA FMI KTM 26:32.313 12 0:54.679 0:03.021 2:00.238 3 49.7
17 11 Haarup, Mikkel DEN DMU Husqvarna 26:33.440 12 0:55.806 0:01.127 2:00.536 2 49.5
18 118 Rubini, Stephen FRA FFM Honda 26:34.341 12 0:56.707 0:00.901 1:59.671 2 49.9
19 303 Forato, Alberto ITA FMI Husqvarna 26:34.811 12 0:57.177 0:00.470 1:59.883 6 49.8
20 161 Östlund, Alvin SWE SVEMO Husqvarna 26:35.524 12 0:57.890 0:00.713 2:00.371 2 49.6
  • francojs

    Grande Tony, e sempre bravo Monticelli !!!!
Inserisci il tuo commento